Time;durP1;ratioP1;P1;durP2;ratioP2;P2;SDS_P1;SDS_P2;PMS_P1;PMS_P2;Temp;Humidity;BMP_temperature;BMP_pressure;BME280_temperature;BME280_humidity;BME280_pressure;Samples;Min_cycle;Max_cycle;Signal;HPM_P1;HPM_P2
2022/04/30 00:00:34;;;;;;;12.80;9.57;;;;;;;;;;5003682;28;20176;-80
2022/04/30 00:03:01;;;;;;;12.70;9.98;;;;;;;;;;5006094;28;20233;-80
2022/04/30 00:05:32;;;;;;;15.98;10.80;;;;;;;;;;5004613;28;20175;-80
2022/04/30 00:07:58;;;;;;;16.13;11.30;;;;;;;;;;4999426;28;20310;-80
2022/04/30 00:10:24;;;;;;;16.17;11.18;;;;;;;;;;4988074;28;20775;-80
2022/04/30 00:12:52;;;;;;;15.85;10.40;;;;;;;;;;4988623;28;20211;-80
2022/04/30 00:15:19;;;;;;;14.48;10.27;;;;;;;;;;5000749;28;20183;-80
2022/04/30 00:17:45;;;;;;;14.52;11.07;;;;;;;;;;5001961;28;20219;-80
2022/04/30 00:20:12;;;;;;;18.38;11.90;;;;;;;;;;4998382;28;20207;-80
2022/04/30 00:22:38;;;;;;;17.67;11.60;;;;;;;;;;4999015;28;20215;-80
2022/04/30 00:25:04;;;;;;;13.90;11.07;;;;;;;;;;4987745;28;20997;-79
2022/04/30 00:27:31;;;;;;;16.05;11.48;;;;;;;;;;4986153;28;20443;-80
2022/04/30 00:29:58;;;;;;;17.63;12.65;;;;;;;;;;4984200;28;20179;-79
2022/04/30 00:32:24;;;;;;;18.35;11.40;;;;;;;;;;4999483;28;20183;-80
2022/04/30 00:34:50;;;;;;;19.48;12.55;;;;;;;;;;4973826;28;20195;-80
2022/04/30 00:37:17;;;;;;;22.85;14.23;;;;;;;;;;4992933;28;20179;-80
2022/04/30 00:39:42;;;;;;;19.70;11.63;;;;;;;;;;5002344;28;20247;-79
2022/04/30 00:42:12;;;;;;;14.32;12.35;;;;;;;;;;4987564;28;20259;-80
2022/04/30 00:44:38;;;;;;;16.90;12.00;;;;;;;;;;5004641;28;20177;-79
2022/04/30 00:47:04;;;;;;;16.63;12.52;;;;;;;;;;5002627;28;20202;-80
2022/04/30 00:49:30;;;;;;;18.88;12.40;;;;;;;;;;5002177;28;20182;-79
2022/04/30 00:51:59;;;;;;;19.98;12.32;;;;;;;;;;5001987;28;20219;-80
2022/04/30 00:54:26;;;;;;;16.10;12.50;;;;;;;;;;4981097;28;20188;-80
2022/04/30 00:56:53;;;;;;;17.33;11.40;;;;;;;;;;4984568;28;20187;-80
2022/04/30 00:59:20;;;;;;;16.38;12.70;;;;;;;;;;5001699;28;20205;-80
2022/04/30 01:01:47;;;;;;;17.27;12.23;;;;;;;;;;5002288;28;20175;-80
2022/04/30 01:04:14;;;;;;;15.52;12.43;;;;;;;;;;4987168;28;20274;-80
2022/04/30 01:06:43;;;;;;;18.83;12.45;;;;;;;;;;4985759;28;20204;-80
2022/04/30 01:09:09;;;;;;;18.63;12.88;;;;;;;;;;5003973;28;20217;-79
2022/04/30 01:11:35;;;;;;;16.48;13.23;;;;;;;;;;5003564;28;20183;-80
2022/04/30 01:14:01;;;;;;;17.52;13.85;;;;;;;;;;5002859;28;20194;-80
2022/04/30 01:16:27;;;;;;;18.38;12.45;;;;;;;;;;5001529;28;20222;-79
2022/04/30 01:18:53;;;;;;;18.95;12.93;;;;;;;;;;5001944;28;20197;-79
2022/04/30 01:21:19;;;;;;;16.73;13.65;;;;;;;;;;5002801;28;20198;-79
2022/04/30 01:23:46;;;;;;;19.88;13.38;;;;;;;;;;5004578;28;20715;-78
2022/04/30 01:26:13;;;;;;;18.48;13.38;;;;;;;;;;5002053;28;20258;-80
2022/04/30 01:28:40;;;;;;;16.45;11.90;;;;;;;;;;5001447;28;20183;-80
2022/04/30 01:37:22;;;;;;;20.70;13.90;;;;;;;;;;5001738;28;20191;-80
2022/04/30 01:39:21;;;;;;;23.27;14.57;;;;;;;;;;5002046;28;20211;-79
2022/04/30 01:41:47;;;;;;;18.10;14.20;;;;;;;;;;4972881;28;20241;-79
2022/04/30 01:44:13;;;;;;;21.60;13.77;;;;;;;;;;4989566;28;20467;-80
2022/04/30 01:46:39;;;;;;;20.93;12.93;;;;;;;;;;4994272;28;20310;-80
2022/04/30 01:49:05;;;;;;;15.23;12.30;;;;;;;;;;5000863;28;20430;-80
2022/04/30 01:51:31;;;;;;;21.33;14.48;;;;;;;;;;5000798;28;20521;-79
2022/04/30 01:53:57;;;;;;;17.92;12.50;;;;;;;;;;5004995;28;20174;-79
2022/04/30 01:56:23;;;;;;;22.10;13.77;;;;;;;;;;5001713;28;20179;-80
2022/04/30 01:58:50;;;;;;;18.65;14.00;;;;;;;;;;5001161;28;20183;-80
2022/04/30 02:01:16;;;;;;;24.15;15.30;;;;;;;;;;5001208;28;20186;-80
2022/04/30 02:03:42;;;;;;;19.63;13.73;;;;;;;;;;4984814;28;20250;-79
2022/04/30 02:06:08;;;;;;;18.65;13.52;;;;;;;;;;4985499;28;20621;-79
2022/04/30 02:08:35;;;;;;;16.25;13.02;;;;;;;;;;5002278;28;20171;-79
2022/04/30 02:11:01;;;;;;;17.83;14.02;;;;;;;;;;5000684;28;20199;-80
2022/04/30 02:13:29;;;;;;;25.83;12.90;;;;;;;;;;4986358;28;20183;-80
2022/04/30 02:15:56;;;;;;;37.20;14.38;;;;;;;;;;5001354;28;20886;-79
2022/04/30 02:18:23;;;;;;;19.42;13.23;;;;;;;;;;5001509;28;20256;-79
2022/04/30 02:20:50;;;;;;;22.60;13.95;;;;;;;;;;5003107;28;20187;-80
2022/04/30 02:23:16;;;;;;;17.60;12.30;;;;;;;;;;4986028;28;20582;-79
2022/04/30 02:25:44;;;;;;;18.50;12.63;;;;;;;;;;5000649;28;20237;-79
2022/04/30 02:28:10;;;;;;;17.63;11.95;;;;;;;;;;5001394;28;20220;-80
2022/04/30 02:30:37;;;;;;;19.77;13.40;;;;;;;;;;5000659;28;20180;-80
2022/04/30 02:33:06;;;;;;;21.80;14.05;;;;;;;;;;5003086;28;20171;-79
2022/04/30 02:35:34;;;;;;;18.17;13.70;;;;;;;;;;5001385;28;20183;-79
2022/04/30 02:38:01;;;;;;;18.73;13.07;;;;;;;;;;5000661;28;20194;-79
2022/04/30 02:40:27;;;;;;;17.40;13.10;;;;;;;;;;5000373;28;20664;-80
2022/04/30 02:42:54;;;;;;;19.40;12.68;;;;;;;;;;4983338;28;20206;-79
2022/04/30 02:45:22;;;;;;;17.63;10.98;;;;;;;;;;5001920;28;20268;-79
2022/04/30 02:47:55;;;;;;;17.85;11.90;;;;;;;;;;4973743;28;20187;-79
2022/04/30 02:50:24;;;;;;;17.58;12.00;;;;;;;;;;4999900;28;20167;-80
2022/04/30 02:52:50;;;;;;;16.80;13.45;;;;;;;;;;4983199;28;20245;-80
2022/04/30 02:55:16;;;;;;;16.70;12.60;;;;;;;;;;5000578;28;20180;-80
2022/04/30 03:00:45;;;;;;;14.75;11.65;;;;;;;;;;4986186;28;20451;-79
2022/04/30 03:03:12;;;;;;;19.60;13.93;;;;;;;;;;5002417;28;20203;-79
2022/04/30 03:05:43;;;;;;;16.85;12.00;;;;;;;;;;4970604;28;20187;-80
2022/04/30 03:08:13;;;;;;;18.50;12.57;;;;;;;;;;4998889;28;20180;-80
2022/04/30 03:10:44;;;;;;;20.33;12.63;;;;;;;;;;5000173;28;20274;-79
2022/04/30 03:13:10;;;;;;;20.88;14.07;;;;;;;;;;5000429;28;20195;-79
2022/04/30 03:15:37;;;;;;;25.60;13.35;;;;;;;;;;4983732;28;20188;-79
2022/04/30 03:21:49;;;;;;;19.75;13.35;;;;;;;;;;5007138;28;20194;-79
2022/04/30 03:23:46;;;;;;;21.35;13.02;;;;;;;;;;4989980;28;20205;-79
2022/04/30 03:26:13;;;;;;;23.33;13.93;;;;;;;;;;5002940;28;20673;-80
2022/04/30 03:28:40;;;;;;;19.65;11.85;;;;;;;;;;5003988;28;20179;-79
2022/04/30 03:31:07;;;;;;;17.40;12.68;;;;;;;;;;5003855;28;20262;-79
2022/04/30 03:33:33;;;;;;;23.52;14.63;;;;;;;;;;4986226;28;20191;-79
2022/04/30 03:35:59;;;;;;;20.75;13.77;;;;;;;;;;4989029;28;20256;-79
2022/04/30 03:38:25;;;;;;;18.25;12.43;;;;;;;;;;5006257;28;20200;-79
2022/04/30 03:40:51;;;;;;;22.77;12.40;;;;;;;;;;5003572;28;20194;-80
2022/04/30 03:43:18;;;;;;;18.63;12.38;;;;;;;;;;4988686;28;20676;-80
2022/04/30 03:45:44;;;;;;;23.42;12.50;;;;;;;;;;5003705;28;20732;-80
2022/04/30 03:48:12;;;;;;;19.55;12.95;;;;;;;;;;5005168;28;20174;-79
2022/04/30 03:50:38;;;;;;;22.95;13.38;;;;;;;;;;5000769;28;20196;-80
2022/04/30 03:53:04;;;;;;;25.05;13.30;;;;;;;;;;5001566;28;20186;-80
2022/04/30 03:55:30;;;;;;;20.65;15.00;;;;;;;;;;5003672;28;20198;-80
2022/04/30 03:57:56;;;;;;;19.77;11.93;;;;;;;;;;5003177;28;20195;-80
2022/04/30 04:00:22;;;;;;;17.13;12.57;;;;;;;;;;5003721;28;20211;-79
2022/04/30 04:02:48;;;;;;;21.35;13.77;;;;;;;;;;4974467;28;20207;-80
2022/04/30 04:05:15;;;;;;;19.83;13.55;;;;;;;;;;4997894;28;20182;-79
2022/04/30 04:07:41;;;;;;;21.00;13.52;;;;;;;;;;5003281;28;20171;-80
2022/04/30 04:10:09;;;;;;;20.90;12.70;;;;;;;;;;5002973;28;20198;-80
2022/04/30 04:12:36;;;;;;;21.27;14.32;;;;;;;;;;5003682;28;20207;-79
2022/04/30 04:17:46;;;;;;;21.02;12.80;;;;;;;;;;5006208;28;20258;-79
2022/04/30 04:20:13;;;;;;;21.85;13.77;;;;;;;;;;4987847;28;20187;-79
2022/04/30 04:22:39;;;;;;;19.80;12.73;;;;;;;;;;5002802;28;20218;-80
2022/04/30 04:27:54;;;;;;;19.10;13.45;;;;;;;;;;5002699;28;20288;-79
2022/04/30 04:30:21;;;;;;;21.42;13.20;;;;;;;;;;5003677;28;20285;-79
2022/04/30 04:32:47;;;;;;;20.45;13.90;;;;;;;;;;4988621;28;20386;-79
2022/04/30 04:35:14;;;;;;;22.53;14.03;;;;;;;;;;4987187;28;20430;-79
2022/04/30 04:37:40;;;;;;;15.65;11.50;;;;;;;;;;5003097;28;20453;-80
2022/04/30 04:40:07;;;;;;;24.83;14.40;;;;;;;;;;4987455;28;20195;-80
2022/04/30 04:42:33;;;;;;;21.70;14.52;;;;;;;;;;5002205;28;20187;-79
2022/04/30 04:44:59;;;;;;;17.80;13.00;;;;;;;;;;5005724;28;20179;-79
2022/04/30 04:47:25;;;;;;;21.27;13.70;;;;;;;;;;4986878;28;20930;-80
2022/04/30 04:49:51;;;;;;;18.60;12.85;;;;;;;;;;5002515;28;20603;-80
2022/04/30 04:52:17;;;;;;;21.02;12.70;;;;;;;;;;5002089;28;20197;-80
2022/04/30 04:54:43;;;;;;;19.40;12.98;;;;;;;;;;5002382;28;20622;-79
2022/04/30 04:57:09;;;;;;;21.77;13.15;;;;;;;;;;5004314;28;20182;-79
2022/04/30 04:59:35;;;;;;;21.83;13.70;;;;;;;;;;5003613;28;20227;-79
2022/04/30 05:02:03;;;;;;;18.60;13.83;;;;;;;;;;5002132;28;20182;-80
2022/04/30 05:04:29;;;;;;;26.08;14.68;;;;;;;;;;4986869;28;21026;-80
2022/04/30 05:06:55;;;;;;;17.85;13.38;;;;;;;;;;4987123;28;20191;-80
2022/04/30 05:09:21;;;;;;;20.25;13.52;;;;;;;;;;4986583;28;20182;-79
2022/04/30 05:11:47;;;;;;;18.98;12.45;;;;;;;;;;4987584;28;20175;-80
2022/04/30 05:14:13;;;;;;;24.30;12.27;;;;;;;;;;4984303;28;20540;-79
2022/04/30 05:16:39;;;;;;;20.33;12.20;;;;;;;;;;5001323;28;20477;-79
2022/04/30 05:19:05;;;;;;;22.47;12.50;;;;;;;;;;5001554;28;20186;-80
2022/04/30 05:21:32;;;;;;;24.00;13.50;;;;;;;;;;4986131;28;20439;-79
2022/04/30 05:23:58;;;;;;;20.85;13.13;;;;;;;;;;5005698;28;20370;-79
2022/04/30 05:26:24;;;;;;;21.90;13.82;;;;;;;;;;4987228;28;20187;-79
2022/04/30 05:28:51;;;;;;;18.98;13.57;;;;;;;;;;5001602;28;20179;-79
2022/04/30 05:31:17;;;;;;;18.17;12.10;;;;;;;;;;4986554;28;20179;-79
2022/04/30 05:33:43;;;;;;;20.97;14.23;;;;;;;;;;5001216;28;20188;-79
2022/04/30 05:36:09;;;;;;;22.80;13.07;;;;;;;;;;5003487;28;20430;-80
2022/04/30 05:38:35;;;;;;;23.00;12.82;;;;;;;;;;5003043;28;20231;-79
2022/04/30 05:41:01;;;;;;;27.23;15.20;;;;;;;;;;4986643;28;20218;-80
2022/04/30 05:43:27;;;;;;;19.40;13.27;;;;;;;;;;5000794;28;20247;-80
2022/04/30 05:45:53;;;;;;;19.63;13.15;;;;;;;;;;5001395;28;20183;-80
2022/04/30 05:48:19;;;;;;;21.60;13.93;;;;;;;;;;5002565;28;20204;-80
2022/04/30 05:50:45;;;;;;;24.90;15.10;;;;;;;;;;4972270;28;20230;-80
2022/04/30 05:53:11;;;;;;;20.48;13.32;;;;;;;;;;4999925;28;20194;-79
2022/04/30 05:55:37;;;;;;;21.85;14.38;;;;;;;;;;5000997;28;20182;-79
2022/04/30 05:58:03;;;;;;;25.90;14.55;;;;;;;;;;4984554;28;20249;-80
2022/04/30 06:00:29;;;;;;;24.90;14.23;;;;;;;;;;5001015;28;20179;-80
2022/04/30 06:02:55;;;;;;;22.17;14.70;;;;;;;;;;4987338;28;20273;-80
2022/04/30 06:05:22;;;;;;;21.75;14.60;;;;;;;;;;5002162;28;20613;-80
2022/04/30 06:07:49;;;;;;;23.95;16.67;;;;;;;;;;5000812;28;20210;-80
2022/04/30 06:10:16;;;;;;;16.75;12.45;;;;;;;;;;5001120;28;20195;-80
2022/04/30 06:12:42;;;;;;;20.33;13.77;;;;;;;;;;5000592;28;20218;-81
2022/04/30 06:15:09;;;;;;;27.27;14.90;;;;;;;;;;5003197;28;20183;-78
2022/04/30 06:17:35;;;;;;;21.92;15.23;;;;;;;;;;4987044;28;20691;-81
2022/04/30 06:20:01;;;;;;;27.42;13.77;;;;;;;;;;4998134;28;20254;-80
2022/04/30 06:22:27;;;;;;;23.00;14.98;;;;;;;;;;5000305;28;20202;-78
2022/04/30 06:24:53;;;;;;;23.40;15.15;;;;;;;;;;4979414;28;20198;-80
2022/04/30 06:27:20;;;;;;;21.25;14.73;;;;;;;;;;4997740;28;20183;-80
2022/04/30 06:29:46;;;;;;;24.15;15.73;;;;;;;;;;4999958;28;20192;-79
2022/04/30 06:32:12;;;;;;;25.98;15.27;;;;;;;;;;4996852;28;20273;-80
2022/04/30 06:34:39;;;;;;;21.88;14.20;;;;;;;;;;4996218;28;20183;-79
2022/04/30 06:37:05;;;;;;;21.20;14.73;;;;;;;;;;4999661;28;20202;-80
2022/04/30 06:39:31;;;;;;;23.70;14.57;;;;;;;;;;4982732;28;20191;-80
2022/04/30 06:41:57;;;;;;;29.25;15.90;;;;;;;;;;5003422;28;20419;-81
2022/04/30 06:44:23;;;;;;;20.10;14.32;;;;;;;;;;5000797;28;20206;-80
2022/04/30 06:46:49;;;;;;;23.50;15.97;;;;;;;;;;5000530;28;20195;-80
2022/04/30 06:49:15;;;;;;;21.27;15.25;;;;;;;;;;5000801;28;20501;-79
2022/04/30 06:51:41;;;;;;;23.20;15.33;;;;;;;;;;5000298;28;20188;-80
2022/04/30 06:57:07;;;;;;;25.20;15.38;;;;;;;;;;5007609;28;20189;-80
2022/04/30 06:59:36;;;;;;;23.80;15.23;;;;;;;;;;4990454;28;20186;-79
2022/04/30 07:02:06;;;;;;;20.42;14.18;;;;;;;;;;4989243;28;20214;-80
2022/04/30 07:04:32;;;;;;;19.40;14.20;;;;;;;;;;4989466;28;20213;-80
2022/04/30 07:06:58;;;;;;;23.20;15.73;;;;;;;;;;4989447;28;20187;-80
2022/04/30 07:09:24;;;;;;;22.23;14.02;;;;;;;;;;4971706;28;20190;-80
2022/04/30 07:11:51;;;;;;;21.27;14.75;;;;;;;;;;5007368;28;20606;-80
2022/04/30 07:14:17;;;;;;;23.60;14.90;;;;;;;;;;5004766;28;20191;-80
2022/04/30 07:16:43;;;;;;;24.48;15.30;;;;;;;;;;5004237;28;20258;-80
2022/04/30 07:19:09;;;;;;;22.38;14.65;;;;;;;;;;4989380;28;20187;-80
2022/04/30 07:21:35;;;;;;;20.45;15.57;;;;;;;;;;4986672;28;20194;-80
2022/04/30 07:24:01;;;;;;;23.38;14.35;;;;;;;;;;5004238;28;20203;-81
2022/04/30 07:26:28;;;;;;;20.65;14.35;;;;;;;;;;5004870;28;20179;-80
2022/04/30 07:28:54;;;;;;;19.75;14.52;;;;;;;;;;4989055;28;20183;-80
2022/04/30 07:31:20;;;;;;;19.42;13.13;;;;;;;;;;5003825;28;20183;-81
2022/04/30 07:33:48;;;;;;;19.35;13.45;;;;;;;;;;5003564;28;20199;-80
2022/04/30 07:36:14;;;;;;;18.02;13.10;;;;;;;;;;4987789;28;20265;-80
2022/04/30 07:38:40;;;;;;;17.02;13.40;;;;;;;;;;5005468;28;20195;-80
2022/04/30 07:41:06;;;;;;;19.83;14.20;;;;;;;;;;5003387;28;20199;-82
2022/04/30 07:43:32;;;;;;;18.90;13.27;;;;;;;;;;4988529;28;20470;-81
2022/04/30 07:45:58;;;;;;;18.13;12.77;;;;;;;;;;4989032;28;20179;-82
2022/04/30 07:48:24;;;;;;;22.85;15.32;;;;;;;;;;4986646;28;20195;-81
2022/04/30 07:50:52;;;;;;;19.07;14.03;;;;;;;;;;5006633;28;20235;-82
2022/04/30 07:53:18;;;;;;;23.33;14.43;;;;;;;;;;4988430;28;20445;-81
2022/04/30 07:55:44;;;;;;;19.98;12.93;;;;;;;;;;5003042;28;20194;-81
2022/04/30 07:58:11;;;;;;;20.77;13.32;;;;;;;;;;5004104;28;20194;-81
2022/04/30 08:00:37;;;;;;;18.30;12.70;;;;;;;;;;5003447;28;20365;-82
2022/04/30 08:03:06;;;;;;;18.10;13.63;;;;;;;;;;4987827;28;20199;-82
2022/04/30 08:05:32;;;;;;;16.17;12.13;;;;;;;;;;5004428;28;20268;-79
2022/04/30 08:07:59;;;;;;;17.95;12.93;;;;;;;;;;4988769;28;20194;-82
2022/04/30 08:10:25;;;;;;;18.13;13.63;;;;;;;;;;4987981;28;20183;-81
2022/04/30 08:12:53;;;;;;;19.35;13.15;;;;;;;;;;4988081;28;20210;-80
2022/04/30 08:15:19;;;;;;;19.77;11.90;;;;;;;;;;4986806;28;24473;-82
2022/04/30 08:17:45;;;;;;;14.05;12.48;;;;;;;;;;4973841;28;20685;-83
2022/04/30 08:20:11;;;;;;;16.57;12.30;;;;;;;;;;4990373;28;20216;-81
2022/04/30 08:22:37;;;;;;;19.10;13.50;;;;;;;;;;4995971;28;20442;-81
2022/04/30 08:25:04;;;;;;;19.88;12.25;;;;;;;;;;5003413;28;20422;-79
2022/04/30 08:27:30;;;;;;;17.10;12.38;;;;;;;;;;5002941;28;20194;-82
2022/04/30 08:29:56;;;;;;;16.02;11.55;;;;;;;;;;5006753;28;20179;-82
2022/04/30 08:32:28;;;;;;;18.40;12.27;;;;;;;;;;4987907;28;20171;-80
2022/04/30 08:34:55;;;;;;;15.25;11.85;;;;;;;;;;4984786;28;20438;-80
2022/04/30 08:37:21;;;;;;;17.20;13.05;;;;;;;;;;5003585;28;20269;-81
2022/04/30 08:39:48;;;;;;;19.40;13.55;;;;;;;;;;4987082;28;20211;-81
2022/04/30 08:42:16;;;;;;;18.15;12.10;;;;;;;;;;4986791;28;20171;-80
2022/04/30 08:44:42;;;;;;;18.30;12.70;;;;;;;;;;4982697;28;20199;-81
2022/04/30 08:47:10;;;;;;;13.67;11.47;;;;;;;;;;5002765;28;20241;-81
2022/04/30 08:49:38;;;;;;;15.93;11.95;;;;;;;;;;5002399;28;20434;-81
2022/04/30 08:52:04;;;;;;;15.15;12.10;;;;;;;;;;5002007;28;20209;-81
2022/04/30 08:54:30;;;;;;;14.48;12.00;;;;;;;;;;5002433;28;20184;-81
2022/04/30 08:56:57;;;;;;;13.90;11.97;;;;;;;;;;5006083;28;20625;-81
2022/04/30 08:59:23;;;;;;;18.13;11.95;;;;;;;;;;4985147;28;20427;-81
2022/04/30 09:01:55;;;;;;;15.45;10.93;;;;;;;;;;5001997;28;20190;-81
2022/04/30 09:04:21;;;;;;;14.90;11.27;;;;;;;;;;5001535;28;20210;-81
2022/04/30 09:06:48;;;;;;;12.23;10.35;;;;;;;;;;5001983;28;20190;-81
2022/04/30 09:09:23;;;;;;;15.85;11.00;;;;;;;;;;4986494;28;20180;-81
2022/04/30 09:11:50;;;;;;;15.50;10.55;;;;;;;;;;5005176;28;20192;-80
2022/04/30 09:14:23;;;;;;;10.90;9.80;;;;;;;;;;5002147;28;20222;-82
2022/04/30 09:16:50;;;;;;;13.93;11.15;;;;;;;;;;5001933;28;20235;-83
2022/04/30 09:19:16;;;;;;;13.60;10.05;;;;;;;;;;4984525;28;20194;-83
2022/04/30 09:21:48;;;;;;;12.40;10.40;;;;;;;;;;4985208;28;20194;-81
2022/04/30 09:24:15;;;;;;;13.45;9.25;;;;;;;;;;5003311;28;20231;-81
2022/04/30 09:26:42;;;;;;;12.23;9.63;;;;;;;;;;5004097;28;20171;-82
2022/04/30 09:29:24;;;;;;;12.90;10.70;;;;;;;;;;5002154;28;20221;-80
2022/04/30 09:31:54;;;;;;;11.85;8.27;;;;;;;;;;4986569;28;20194;-82
2022/04/30 09:39:51;;;;;;;11.18;8.30;;;;;;;;;;5002101;28;20221;-83
2022/04/30 09:42:17;;;;;;;7.18;6.47;;;;;;;;;;4986442;28;20190;-82
2022/04/30 09:44:43;;;;;;;8.60;7.68;;;;;;;;;;4987674;28;20204;-83
2022/04/30 09:47:09;;;;;;;12.10;8.10;;;;;;;;;;5001157;28;20341;-83
2022/04/30 09:55:19;;;;;;;6.57;5.88;;;;;;;;;;4962668;29;20192;-80
2022/04/30 09:57:46;;;;;;;8.87;7.97;;;;;;;;;;4946626;29;20246;-81
2022/04/30 10:00:13;;;;;;;8.55;6.03;;;;;;;;;;4947790;29;20421;-82
2022/04/30 10:02:39;;;;;;;8.20;6.45;;;;;;;;;;4945370;29;20263;-82
2022/04/30 10:05:06;;;;;;;7.22;5.05;;;;;;;;;;4961558;29;20653;-83
2022/04/30 10:07:33;;;;;;;7.53;6.72;;;;;;;;;;4962482;29;20213;-82
2022/04/30 10:09:59;;;;;;;7.28;5.80;;;;;;;;;;4946390;29;20187;-83
2022/04/30 10:12:33;;;;;;;11.23;5.73;;;;;;;;;;4946051;29;20226;-88
2022/04/30 10:14:59;;;;;;;5.85;4.97;;;;;;;;;;4943346;29;20451;-81
2022/04/30 10:17:29;;;;;;;5.80;5.20;;;;;;;;;;4951785;29;20687;-82
2022/04/30 10:20:05;;;;;;;7.15;5.50;;;;;;;;;;4960861;29;20449;-82
2022/04/30 10:22:31;;;;;;;7.53;6.03;;;;;;;;;;4962128;29;20190;-81
2022/04/30 10:24:58;;;;;;;5.68;5.15;;;;;;;;;;4963311;29;20255;-82
2022/04/30 10:27:25;;;;;;;8.00;5.47;;;;;;;;;;4962495;28;20200;-82
2022/04/30 10:29:58;;;;;;;6.10;5.50;;;;;;;;;;4964530;28;20191;-83
2022/04/30 10:32:35;;;;;;;6.38;5.45;;;;;;;;;;4985231;28;20271;-82
2022/04/30 10:35:01;;;;;;;6.35;5.60;;;;;;;;;;4999381;28;20216;-82
2022/04/30 10:37:32;;;;;;;6.50;5.80;;;;;;;;;;5000596;28;20193;-82
2022/04/30 10:39:58;;;;;;;8.73;5.90;;;;;;;;;;5001054;28;20181;-83
2022/04/30 10:42:31;;;;;;;8.88;6.15;;;;;;;;;;4983610;28;20285;-82
2022/04/30 10:44:58;;;;;;;6.15;5.03;;;;;;;;;;4992447;28;20183;-82
2022/04/30 10:47:24;;;;;;;5.80;5.20;;;;;;;;;;4986267;28;20183;-83
2022/04/30 10:49:50;;;;;;;6.32;5.28;;;;;;;;;;5000561;28;20175;-83
2022/04/30 10:52:25;;;;;;;6.63;5.17;;;;;;;;;;5000197;28;20179;-87
2022/04/30 10:54:54;;;;;;;6.72;5.30;;;;;;;;;;4985226;28;20759;-87
2022/04/30 10:57:21;;;;;;;6.13;5.53;;;;;;;;;;4983775;28;20202;-82
2022/04/30 11:00:01;;;;;;;7.78;6.00;;;;;;;;;;5003203;28;20716;-82
2022/04/30 11:02:31;;;;;;;6.88;5.35;;;;;;;;;;5000994;28;20171;-84
2022/04/30 11:04:57;;;;;;;7.13;5.28;;;;;;;;;;4999596;28;20179;-83
2022/04/30 11:07:23;;;;;;;9.07;4.93;;;;;;;;;;4999896;28;20207;-80
2022/04/30 11:09:49;;;;;;;6.10;4.60;;;;;;;;;;4985361;28;20271;-82
2022/04/30 11:12:15;;;;;;;8.33;5.30;;;;;;;;;;5002315;28;20182;-82
2022/04/30 11:14:48;;;;;;;5.57;5.07;;;;;;;;;;4985759;28;20426;-80
2022/04/30 11:17:14;;;;;;;5.97;4.65;;;;;;;;;;4999543;28;20242;-82
2022/04/30 11:19:41;;;;;;;5.45;4.95;;;;;;;;;;5000396;28;20205;-82
2022/04/30 11:22:08;;;;;;;5.25;3.38;;;;;;;;;;4985267;28;20244;-82
2022/04/30 11:24:34;;;;;;;5.28;4.15;;;;;;;;;;4983144;28;20287;-80
2022/04/30 11:27:04;;;;;;;6.15;3.90;;;;;;;;;;4985595;28;20182;-83
2022/04/30 11:29:31;;;;;;;8.98;4.40;;;;;;;;;;4985273;28;20238;-81
2022/04/30 11:31:58;;;;;;;4.53;3.50;;;;;;;;;;4999427;28;20190;-82
2022/04/30 11:34:24;;;;;;;3.85;3.50;;;;;;;;;;4999554;28;20254;-82
2022/04/30 11:36:52;;;;;;;5.20;3.25;;;;;;;;;;5000042;28;20195;-79
2022/04/30 11:39:19;;;;;;;6.50;4.22;;;;;;;;;;5001243;28;20195;-82
2022/04/30 11:41:46;;;;;;;4.80;3.13;;;;;;;;;;4989424;28;20206;-81
2022/04/30 11:44:12;;;;;;;5.35;2.80;;;;;;;;;;5003270;28;20216;-81
2022/04/30 11:46:39;;;;;;;3.40;2.60;;;;;;;;;;4988819;28;20197;-78
2022/04/30 11:49:25;;;;;;;3.22;2.83;;;;;;;;;;4988223;28;20190;-83
2022/04/30 11:51:51;;;;;;;2.83;2.50;;;;;;;;;;5005002;28;20202;-82
2022/04/30 11:54:18;;;;;;;3.03;2.72;;;;;;;;;;5005007;28;20195;-81
2022/04/30 11:56:45;;;;;;;3.40;3.10;;;;;;;;;;5006055;28;20221;-80
2022/04/30 11:59:12;;;;;;;3.20;2.50;;;;;;;;;;5003064;28;20191;-81
2022/04/30 12:01:39;;;;;;;2.45;2.25;;;;;;;;;;4988160;28;20190;-80
2022/04/30 12:04:11;;;;;;;4.40;2.78;;;;;;;;;;4987222;28;20226;-85
2022/04/30 12:06:37;;;;;;;2.75;2.45;;;;;;;;;;5003402;28;20182;-82
2022/04/30 12:09:17;;;;;;;2.55;2.35;;;;;;;;;;5005181;28;20210;-81
2022/04/30 12:11:51;;;;;;;3.63;2.70;;;;;;;;;;5005848;28;20176;-87
2022/04/30 12:14:17;;;;;;;5.50;2.67;;;;;;;;;;5002644;28;20178;-80
2022/04/30 12:16:44;;;;;;;3.03;2.72;;;;;;;;;;4987572;28;20237;-86
2022/04/30 12:25:02;;;;;;;3.67;2.65;;;;;;;;;;5003070;28;20199;-82
2022/04/30 12:27:29;;;;;;;3.15;2.70;;;;;;;;;;5003074;28;20209;-80
2022/04/30 12:30:04;;;;;;;3.05;2.15;;;;;;;;;;4988713;28;20410;-86
2022/04/30 12:32:30;;;;;;;3.25;2.60;;;;;;;;;;5005481;28;20236;-81
2022/04/30 12:34:57;;;;;;;2.67;2.43;;;;;;;;;;5002879;28;20197;-82
2022/04/30 12:37:30;;;;;;;3.20;2.90;;;;;;;;;;5002240;28;20424;-83
2022/04/30 12:39:57;;;;;;;2.73;2.53;;;;;;;;;;4987540;28;20441;-84
2022/04/30 12:42:23;;;;;;;3.27;2.77;;;;;;;;;;4986273;28;20412;-81
2022/04/30 12:44:48;;;;;;;3.30;3.00;;;;;;;;;;4988127;28;20473;-81
2022/04/30 12:47:14;;;;;;;6.43;3.10;;;;;;;;;;5002260;28;20438;-81
2022/04/30 12:49:40;;;;;;;3.73;2.77;;;;;;;;;;4987614;28;20454;-81
2022/04/30 12:52:07;;;;;;;2.33;2.13;;;;;;;;;;5002167;28;20488;-80
2022/04/30 12:54:33;;;;;;;2.70;2.47;;;;;;;;;;5002221;28;20632;-84
2022/04/30 12:57:00;;;;;;;3.00;2.60;;;;;;;;;;4987636;28;20438;-84
2022/04/30 12:59:26;;;;;;;6.23;2.57;;;;;;;;;;5003226;28;20429;-82
2022/04/30 13:01:52;;;;;;;2.73;2.47;;;;;;;;;;4987367;28;20494;-81
2022/04/30 13:04:18;;;;;;;2.97;2.13;;;;;;;;;;5001312;28;20440;-81
2022/04/30 13:06:45;;;;;;;2.57;2.37;;;;;;;;;;4986240;28;20432;-84
2022/04/30 13:14:40;;;;;;;2.70;2.50;;;;;;;;;;5003379;28;20389;-87
2022/04/30 13:17:06;;;;;;;2.80;2.27;;;;;;;;;;5002286;28;20449;-82
2022/04/30 13:19:32;;;;;;;4.90;2.50;;;;;;;;;;5001724;28;20444;-83
2022/04/30 13:21:59;;;;;;;2.50;2.30;;;;;;;;;;5001808;28;20461;-82
2022/04/30 13:24:26;;;;;;;3.50;2.57;;;;;;;;;;4984650;28;20471;-81
2022/04/30 13:26:52;;;;;;;3.00;2.40;;;;;;;;;;4987585;28;20399;-82
2022/04/30 13:29:18;;;;;;;2.93;2.67;;;;;;;;;;4983762;28;20490;-87
2022/04/30 13:31:44;;;;;;;2.73;2.50;;;;;;;;;;5002141;28;20415;-83
2022/04/30 13:34:11;;;;;;;1.70;1.60;;;;;;;;;;5000812;28;20417;-82
2022/04/30 13:36:40;;;;;;;2.50;2.30;;;;;;;;;;4984042;28;20926;-79
2022/04/30 13:39:06;;;;;;;2.37;2.17;;;;;;;;;;5003867;28;20443;-85
2022/04/30 13:41:32;;;;;;;3.97;2.43;;;;;;;;;;5003278;28;20450;-83
2022/04/30 13:43:58;;;;;;;2.47;2.20;;;;;;;;;;5000615;28;20499;-81
2022/04/30 13:46:24;;;;;;;2.70;2.50;;;;;;;;;;5001358;28;20411;-83
2022/04/30 13:48:50;;;;;;;2.70;2.43;;;;;;;;;;4984538;28;20509;-83
2022/04/30 13:51:17;;;;;;;3.30;2.47;;;;;;;;;;5002849;28;20488;-85
2022/04/30 13:53:43;;;;;;;2.47;2.23;;;;;;;;;;5003112;28;20410;-82
2022/04/30 13:56:09;;;;;;;4.97;2.37;;;;;;;;;;5000905;28;20461;-83
2022/04/30 13:58:35;;;;;;;2.50;2.27;;;;;;;;;;4984209;28;20481;-83
2022/04/30 14:01:01;;;;;;;3.57;2.90;;;;;;;;;;5001339;28;20832;-84
2022/04/30 14:03:28;;;;;;;4.10;2.40;;;;;;;;;;4983437;28;20987;-83
2022/04/30 14:05:54;;;;;;;2.85;2.00;;;;;;;;;;4992249;28;20409;-82
2022/04/30 14:08:20;;;;;;;4.45;2.40;;;;;;;;;;4983454;28;20218;-84
2022/04/30 14:10:46;;;;;;;4.20;2.57;;;;;;;;;;4985781;28;20213;-83
2022/04/30 14:15:57;;;;;;;3.33;2.45;;;;;;;;;;5001133;28;20229;-82
2022/04/30 14:18:26;;;;;;;6.40;2.60;;;;;;;;;;5001423;28;20197;-81
2022/04/30 14:20:53;;;;;;;2.58;2.38;;;;;;;;;;4987128;28;20185;-81
2022/04/30 14:23:21;;;;;;;3.13;2.30;;;;;;;;;;4982972;28;20205;-83
2022/04/30 14:25:49;;;;;;;2.83;2.00;;;;;;;;;;5001041;28;20182;-82
2022/04/30 14:28:15;;;;;;;5.03;2.40;;;;;;;;;;4986100;28;20479;-84
2022/04/30 14:30:42;;;;;;;2.50;2.20;;;;;;;;;;4985025;28;20257;-86
2022/04/30 14:33:08;;;;;;;3.47;2.00;;;;;;;;;;5003579;28;20231;-86
2022/04/30 14:35:38;;;;;;;4.47;2.60;;;;;;;;;;4986480;28;20180;-81
2022/04/30 14:38:08;;;;;;;2.80;2.60;;;;;;;;;;4985628;28;20215;-80
2022/04/30 14:40:34;;;;;;;4.43;2.70;;;;;;;;;;5000554;28;20251;-81
2022/04/30 14:43:00;;;;;;;4.68;2.08;;;;;;;;;;5001248;28;20215;-80
2022/04/30 14:45:26;;;;;;;3.27;2.97;;;;;;;;;;5001295;28;20180;-82
2022/04/30 14:47:52;;;;;;;2.90;2.30;;;;;;;;;;4986787;28;20505;-86
2022/04/30 14:50:19;;;;;;;3.95;2.65;;;;;;;;;;4983485;28;20555;-81
2022/04/30 14:52:45;;;;;;;2.70;2.50;;;;;;;;;;5000726;28;20653;-83
2022/04/30 14:55:11;;;;;;;3.83;2.70;;;;;;;;;;4985312;28;20872;-83
2022/04/30 14:57:37;;;;;;;2.83;2.63;;;;;;;;;;5000617;28;20184;-83
2022/04/30 15:00:05;;;;;;;3.42;2.67;;;;;;;;;;4985587;28;20444;-82
2022/04/30 15:02:31;;;;;;;2.85;2.65;;;;;;;;;;5003478;28;20180;-83
2022/04/30 15:04:57;;;;;;;3.43;3.13;;;;;;;;;;5000174;28;20236;-78
2022/04/30 15:07:23;;;;;;;2.60;2.40;;;;;;;;;;5001430;28;20541;-81
2022/04/30 15:09:49;;;;;;;3.43;2.97;;;;;;;;;;4984889;28;20445;-82